Time;durP1;ratioP1;P1;durP2;ratioP2;P2;SDS_P1;SDS_P2;PMS_P1;PMS_P2;Temp;Humidity;BMP_temperature;BMP_pressure;BME280_temperature;BME280_humidity;BME280_pressure;Samples;Min_cycle;Max_cycle;Signal;HPM_P1;HPM_P2
2024/01/21 00:02:10;;;;;;;15.10;8.82;;;0.70;99.90;;;;;;5071731;28;20052;-71
2024/01/21 00:04:36;;;;;;;13.18;9.00;;;0.70;99.90;;;;;;5072276;28;20047;-71
2024/01/21 00:07:01;;;;;;;16.90;8.65;;;0.70;99.90;;;;;;5073851;28;20040;-71
2024/01/21 00:09:28;;;;;;;13.50;8.20;;;0.70;99.90;;;;;;5072188;28;20047;-71
2024/01/21 00:11:54;;;;;;;14.38;8.65;;;0.70;99.90;;;;;;5073763;28;20048;-71
2024/01/21 00:14:20;;;;;;;13.90;8.88;;;0.60;99.90;;;;;;5072093;28;20076;-71
2024/01/21 00:16:45;;;;;;;15.43;9.40;;;0.70;99.90;;;;;;5072474;28;20036;-71
2024/01/21 00:19:11;;;;;;;15.00;8.82;;;0.60;99.90;;;;;;5072157;28;20556;-71
2024/01/21 00:21:37;;;;;;;17.20;9.00;;;0.60;99.90;;;;;;5072350;28;20122;-71
2024/01/21 00:24:02;;;;;;;16.45;9.23;;;0.60;99.90;;;;;;5073596;28;20115;-71
2024/01/21 00:26:28;;;;;;;14.45;8.95;;;0.60;99.90;;;;;;5073485;28;20046;-71
2024/01/21 00:28:54;;;;;;;13.07;9.02;;;0.60;99.90;;;;;;5072394;28;20036;-71
2024/01/21 00:31:19;;;;;;;15.65;8.50;;;0.60;99.90;;;;;;5055206;28;20301;-71
2024/01/21 00:33:45;;;;;;;14.63;9.10;;;0.60;99.90;;;;;;5073481;28;20064;-71
2024/01/21 00:36:11;;;;;;;12.50;8.27;;;0.60;99.90;;;;;;5071879;28;20028;-71
2024/01/21 00:38:38;;;;;;;14.55;8.60;;;0.60;99.90;;;;;;5071931;28;20039;-71
2024/01/21 00:41:05;;;;;;;15.27;8.68;;;0.60;99.90;;;;;;5073412;28;20107;-71
2024/01/21 00:43:30;;;;;;;14.60;8.80;;;0.60;99.90;;;;;;5071755;28;20584;-71
2024/01/21 00:45:56;;;;;;;13.70;8.55;;;0.60;99.90;;;;;;5071800;28;20119;-71
2024/01/21 00:48:22;;;;;;;13.65;8.63;;;0.60;99.90;;;;;;5071824;28;20044;-71
2024/01/21 00:50:48;;;;;;;12.82;8.45;;;0.60;99.90;;;;;;5073232;28;20040;-71
2024/01/21 00:53:14;;;;;;;13.40;8.30;;;0.60;99.90;;;;;;5072008;28;20086;-71
2024/01/21 00:55:39;;;;;;;12.10;7.85;;;0.60;99.90;;;;;;5073191;28;20078;-71
2024/01/21 00:58:05;;;;;;;12.45;7.70;;;0.60;99.90;;;;;;5072914;28;20099;-71
2024/01/21 01:00:30;;;;;;;12.05;7.88;;;0.60;99.90;;;;;;5073215;28;20041;-71
2024/01/21 01:02:56;;;;;;;11.60;7.70;;;0.60;99.90;;;;;;5071701;28;20044;-71
2024/01/21 01:05:22;;;;;;;12.95;8.00;;;0.60;99.90;;;;;;5071598;28;20043;-71
2024/01/21 01:07:47;;;;;;;13.25;8.43;;;0.60;99.90;;;;;;5071874;28;20067;-71
2024/01/21 01:10:13;;;;;;;12.85;8.90;;;0.60;99.90;;;;;;5073043;28;20370;-71
2024/01/21 01:12:40;;;;;;;12.48;8.23;;;0.60;99.90;;;;;;5055708;28;20143;-71
2024/01/21 01:15:09;;;;;;;12.70;7.95;;;0.60;99.90;;;;;;5059663;28;20041;-71
2024/01/21 01:17:34;;;;;;;13.55;8.10;;;0.60;99.90;;;;;;5077091;28;20103;-71
2024/01/21 01:20:00;;;;;;;12.40;8.43;;;0.60;99.90;;;;;;5075510;28;20590;-71
2024/01/21 01:22:25;;;;;;;16.27;9.13;;;0.70;99.90;;;;;;5075462;28;20048;-71
2024/01/21 01:24:51;;;;;;;13.60;8.43;;;0.70;99.90;;;;;;5075379;28;20040;-71
2024/01/21 01:27:17;;;;;;;15.05;8.90;;;0.70;99.90;;;;;;5075423;28;20060;-71
2024/01/21 01:29:43;;;;;;;13.52;7.68;;;0.60;99.90;;;;;;5075324;28;20146;-71
2024/01/21 01:32:08;;;;;;;11.35;7.45;;;0.70;99.90;;;;;;5076819;28;20111;-71
2024/01/21 01:34:34;;;;;;;15.77;8.18;;;0.70;99.90;;;;;;5075452;28;20048;-71
2024/01/21 01:36:59;;;;;;;13.30;8.10;;;0.70;99.90;;;;;;5075195;28;20036;-71
2024/01/21 01:39:25;;;;;;;12.88;7.38;;;0.70;99.90;;;;;;5075157;28;20071;-71
2024/01/21 01:41:50;;;;;;;10.63;7.05;;;0.70;99.90;;;;;;5076610;28;20060;-71
2024/01/21 01:44:16;;;;;;;12.63;7.75;;;0.70;99.90;;;;;;5074891;28;20041;-71
2024/01/21 01:46:42;;;;;;;13.27;7.15;;;0.70;99.90;;;;;;5076448;28;20067;-71
2024/01/21 01:49:08;;;;;;;10.90;7.05;;;0.70;99.90;;;;;;5076148;28;20370;-71
2024/01/21 01:51:36;;;;;;;13.48;7.00;;;0.80;99.90;;;;;;5074832;28;20070;-71
2024/01/21 01:54:03;;;;;;;11.43;7.30;;;0.80;99.90;;;;;;5075092;28;20050;-71
2024/01/21 01:56:29;;;;;;;18.50;7.85;;;0.80;99.90;;;;;;5075061;28;20041;-71
2024/01/21 01:58:55;;;;;;;10.52;6.45;;;0.80;99.90;;;;;;5075080;28;20397;-71
2024/01/21 02:01:21;;;;;;;9.43;6.30;;;0.80;99.90;;;;;;5076267;28;20048;-71
2024/01/21 02:03:47;;;;;;;12.02;5.95;;;0.90;99.90;;;;;;5076229;28;20481;-71
2024/01/21 02:06:13;;;;;;;12.27;6.38;;;0.90;99.90;;;;;;5074562;28;20443;-71
2024/01/21 02:08:38;;;;;;;9.07;6.07;;;0.90;99.90;;;;;;5075808;28;20036;-71
2024/01/21 02:11:04;;;;;;;11.48;5.90;;;0.90;99.90;;;;;;5074500;28;20040;-71
2024/01/21 02:13:30;;;;;;;9.82;5.53;;;0.80;99.90;;;;;;5074542;28;20049;-71
2024/01/21 02:15:55;;;;;;;10.77;5.88;;;0.90;99.90;;;;;;5074720;28;20033;-71
2024/01/21 02:18:21;;;;;;;9.40;5.55;;;0.90;99.90;;;;;;5074456;28;20515;-71
2024/01/21 02:20:47;;;;;;;10.25;6.22;;;0.80;99.90;;;;;;5074412;28;20123;-71
2024/01/21 02:23:12;;;;;;;10.68;5.70;;;0.90;99.90;;;;;;5074593;28;20123;-71
2024/01/21 02:25:38;;;;;;;15.32;5.90;;;0.90;99.90;;;;;;5074775;28;20400;-71
2024/01/21 02:28:04;;;;;;;9.00;5.28;;;0.90;99.90;;;;;;5074281;28;20036;-71
2024/01/21 02:30:29;;;;;;;10.45;5.75;;;1.00;99.90;;;;;;5074129;28;20054;-71
2024/01/21 02:32:55;;;;;;;9.73;4.95;;;0.90;99.90;;;;;;5075366;28;20032;-71
2024/01/21 02:35:20;;;;;;;8.63;5.22;;;0.90;99.90;;;;;;5075555;28;20040;-71
2024/01/21 02:37:46;;;;;;;8.93;4.80;;;1.00;99.90;;;;;;5074087;28;20036;-71
2024/01/21 02:40:11;;;;;;;7.65;4.40;;;1.00;99.90;;;;;;5075557;28;20037;-71
2024/01/21 02:42:37;;;;;;;8.18;4.53;;;1.00;99.90;;;;;;5075495;28;20090;-71
2024/01/21 02:45:03;;;;;;;7.72;4.45;;;1.00;99.90;;;;;;5073667;28;20041;-71
2024/01/21 02:47:28;;;;;;;8.77;4.30;;;1.00;99.90;;;;;;5074156;28;20054;-71
2024/01/21 02:49:54;;;;;;;9.48;4.82;;;1.10;99.90;;;;;;5073787;28;20494;-71
2024/01/21 02:52:20;;;;;;;7.82;4.07;;;1.10;99.90;;;;;;5075306;28;20102;-71
2024/01/21 02:54:45;;;;;;;6.60;4.22;;;1.10;99.90;;;;;;5073702;28;20037;-71
2024/01/21 02:57:11;;;;;;;7.43;4.22;;;1.10;99.90;;;;;;5075188;28;20086;-71
2024/01/21 02:59:36;;;;;;;6.63;3.75;;;1.10;99.90;;;;;;5075177;28;20039;-71
2024/01/21 03:02:02;;;;;;;8.77;3.97;;;1.20;99.90;;;;;;5073646;28;20036;-71
2024/01/21 03:04:27;;;;;;;7.32;3.95;;;1.20;99.90;;;;;;5075048;28;20036;-71
2024/01/21 03:06:53;;;;;;;6.25;3.65;;;1.20;99.90;;;;;;5074777;28;20497;-71
2024/01/21 03:09:19;;;;;;;8.13;3.50;;;1.20;99.70;;;;;;5073490;28;20040;-71
2024/01/21 03:11:44;;;;;;;7.90;3.42;;;1.20;99.60;;;;;;5073345;28;20041;-71
2024/01/21 03:14:10;;;;;;;6.28;3.50;;;1.20;98.50;;;;;;5074502;28;20036;-71
2024/01/21 03:16:35;;;;;;;6.65;3.47;;;1.30;98.20;;;;;;5074805;28;20032;-71
2024/01/21 03:19:01;;;;;;;6.53;3.22;;;1.30;97.50;;;;;;5074843;28;20039;-71
2024/01/21 03:21:27;;;;;;;10.77;3.80;;;1.30;97.20;;;;;;5074755;28;20041;-71
2024/01/21 03:23:52;;;;;;;5.60;3.20;;;1.30;96.80;;;;;;5073220;28;20040;-71
2024/01/21 03:26:18;;;;;;;8.23;3.60;;;1.30;96.80;;;;;;5074552;28;20036;-71
2024/01/21 03:28:43;;;;;;;4.53;2.88;;;1.30;96.40;;;;;;5074600;28;20044;-71
2024/01/21 03:31:09;;;;;;;5.60;3.17;;;1.30;95.60;;;;;;5074185;28;20037;-71
2024/01/21 03:33:34;;;;;;;5.32;2.97;;;1.30;95.30;;;;;;5074452;28;20040;-71
2024/01/21 03:36:01;;;;;;;6.63;2.70;;;1.30;95.60;;;;;;5072078;28;20051;-71
2024/01/21 03:38:27;;;;;;;5.57;2.95;;;1.30;95.80;;;;;;5074299;28;20079;-71
2024/01/21 03:40:52;;;;;;;5.03;2.63;;;1.30;95.60;;;;;;5074353;28;20462;-71
2024/01/21 03:43:18;;;;;;;9.07;3.55;;;1.30;95.90;;;;;;5072702;28;20041;-71
2024/01/21 03:45:43;;;;;;;6.45;2.80;;;1.30;96.00;;;;;;5072693;28;20119;-71
2024/01/21 03:48:09;;;;;;;6.30;2.90;;;1.30;95.90;;;;;;5072738;28;20036;-71
2024/01/21 03:50:35;;;;;;;5.30;2.53;;;1.30;95.30;;;;;;5072568;28;20128;-71
2024/01/21 03:53:00;;;;;;;6.35;2.80;;;1.30;93.90;;;;;;5074097;28;20033;-71
2024/01/21 03:55:26;;;;;;;5.53;2.78;;;1.30;93.40;;;;;;5074032;28;20060;-71
2024/01/21 03:57:51;;;;;;;5.53;2.75;;;1.30;93.00;;;;;;5072567;28;20508;-71
2024/01/21 04:00:17;;;;;;;4.97;2.80;;;1.30;92.20;;;;;;5072479;28;20044;-71
2024/01/21 04:02:43;;;;;;;4.18;2.10;;;1.30;91.70;;;;;;5072432;28;20106;-71
2024/01/21 04:05:08;;;;;;;5.78;2.60;;;1.30;91.00;;;;;;5073846;28;20041;-71
2024/01/21 04:07:34;;;;;;;6.50;2.60;;;1.30;89.90;;;;;;5072700;28;20042;-71
2024/01/21 04:10:00;;;;;;;5.47;2.55;;;1.40;90.10;;;;;;5072500;28;20036;-71
2024/01/21 04:12:26;;;;;;;4.78;2.50;;;1.30;89.60;;;;;;5055617;28;20404;-71
2024/01/21 04:14:51;;;;;;;5.68;2.22;;;1.30;89.60;;;;;;5073692;28;20036;-71
2024/01/21 04:17:17;;;;;;;5.28;2.55;;;1.30;88.10;;;;;;5072175;28;20028;-71
2024/01/21 04:19:43;;;;;;;4.85;2.55;;;1.40;87.60;;;;;;5072158;28;20041;-71
2024/01/21 04:22:08;;;;;;;5.03;2.25;;;1.40;87.70;;;;;;5055523;28;20119;-71
2024/01/21 04:24:34;;;;;;;3.38;2.08;;;1.40;86.80;;;;;;5072038;28;20098;-71
2024/01/21 04:27:00;;;;;;;5.35;2.22;;;1.40;85.40;;;;;;5072100;28;20049;-70
2024/01/21 04:29:25;;;;;;;5.55;2.40;;;1.40;84.20;;;;;;5073549;28;20093;-71
2024/01/21 04:31:51;;;;;;;3.53;1.85;;;1.40;84.40;;;;;;5073441;28;20409;-71
2024/01/21 04:34:17;;;;;;;6.03;1.98;;;1.40;83.60;;;;;;5073995;28;20037;-71
2024/01/21 04:36:43;;;;;;;3.97;1.95;;;1.40;82.90;;;;;;5073458;28;20033;-71
2024/01/21 04:39:09;;;;;;;5.47;2.15;;;1.40;82.50;;;;;;5071910;28;20076;-71
2024/01/21 04:41:35;;;;;;;4.22;2.30;;;1.40;81.60;;;;;;5055455;28;20142;-71
2024/01/21 04:44:01;;;;;;;5.72;2.28;;;1.40;81.90;;;;;;5071743;28;20181;-71
2024/01/21 04:46:27;;;;;;;6.43;2.40;;;1.40;81.30;;;;;;5073327;28;20041;-71
2024/01/21 04:48:52;;;;;;;4.20;2.03;;;1.40;81.80;;;;;;5071852;28;20403;-71
2024/01/21 04:51:18;;;;;;;3.00;1.80;;;1.40;81.00;;;;;;5072908;28;20037;-71
2024/01/21 04:53:44;;;;;;;5.55;2.00;;;1.40;80.80;;;;;;5072064;28;20036;-71
2024/01/21 04:56:17;;;;;;;5.00;1.90;;;1.40;80.60;;;;;;5071693;28;20450;-71
2024/01/21 04:58:42;;;;;;;5.80;2.20;;;1.40;80.00;;;;;;5073253;28;20063;-71
2024/01/21 05:01:08;;;;;;;4.35;2.25;;;1.40;80.10;;;;;;5071988;28;20460;-71
2024/01/21 05:03:33;;;;;;;3.90;2.10;;;1.40;79.90;;;;;;5071712;28;20413;-71
2024/01/21 05:05:59;;;;;;;5.35;1.88;;;1.40;79.50;;;;;;5071852;28;20044;-71
2024/01/21 05:08:25;;;;;;;4.57;1.77;;;1.40;79.70;;;;;;5071711;28;20127;-71
2024/01/21 05:10:51;;;;;;;4.97;2.10;;;1.40;79.40;;;;;;5073092;28;20086;-71
2024/01/21 05:13:17;;;;;;;5.95;2.30;;;1.30;79.50;;;;;;5073163;28;20400;-71
2024/01/21 05:15:43;;;;;;;5.57;2.20;;;1.30;79.40;;;;;;5071531;28;20041;-71
2024/01/21 05:18:08;;;;;;;3.67;1.98;;;1.40;79.40;;;;;;5071829;28;20093;-71
2024/01/21 05:20:34;;;;;;;5.50;2.40;;;1.30;79.10;;;;;;5073062;28;20485;-71
2024/01/21 05:23:00;;;;;;;4.45;2.15;;;1.30;79.00;;;;;;5054772;28;20079;-71
2024/01/21 05:25:25;;;;;;;4.00;2.17;;;1.30;78.80;;;;;;5071443;28;20041;-71
2024/01/21 05:27:51;;;;;;;3.22;1.90;;;1.40;78.60;;;;;;5071485;28;20132;-71
2024/01/21 05:30:17;;;;;;;4.70;2.42;;;1.40;78.00;;;;;;5071381;28;20041;-71
2024/01/21 05:32:46;;;;;;;3.83;1.92;;;1.40;78.10;;;;;;5071787;28;20068;-71
2024/01/21 05:35:12;;;;;;;3.97;2.38;;;1.40;78.40;;;;;;5071341;28;20083;-71
2024/01/21 05:37:38;;;;;;;4.90;2.03;;;1.40;78.30;;;;;;5071388;28;20049;-71
2024/01/21 05:40:04;;;;;;;5.05;2.20;;;1.50;77.80;;;;;;5071338;28;20071;-71
2024/01/21 05:42:30;;;;;;;4.72;2.38;;;1.50;78.00;;;;;;5071349;28;20497;-71
2024/01/21 05:44:56;;;;;;;4.03;2.03;;;1.50;78.10;;;;;;5072430;28;20048;-71
2024/01/21 05:47:21;;;;;;;4.30;2.30;;;1.50;78.20;;;;;;5071275;28;20152;-71
2024/01/21 05:49:47;;;;;;;6.05;2.50;;;1.50;77.70;;;;;;5071182;28;20032;-71
2024/01/21 05:52:12;;;;;;;4.75;2.55;;;1.50;77.60;;;;;;5071232;28;20044;-71
2024/01/21 05:54:39;;;;;;;5.22;3.08;;;1.60;77.40;;;;;;5071185;28;20047;-71
2024/01/21 05:57:05;;;;;;;3.85;2.42;;;1.60;77.70;;;;;;5071176;28;20406;-71
2024/01/21 05:59:32;;;;;;;5.18;2.88;;;1.60;77.70;;;;;;5055011;28;20199;-71
2024/01/21 06:01:57;;;;;;;5.18;3.00;;;1.70;77.40;;;;;;5075055;28;20048;-71
2024/01/21 06:04:23;;;;;;;9.15;3.22;;;1.70;77.30;;;;;;5076166;28;20396;-71
2024/01/21 06:06:49;;;;;;;8.60;3.42;;;1.70;77.40;;;;;;5074946;28;20049;-71
2024/01/21 06:09:15;;;;;;;5.97;3.15;;;1.70;77.30;;;;;;5074683;28;20385;-71
2024/01/21 06:11:41;;;;;;;5.50;2.97;;;1.70;77.10;;;;;;5076076;28;20079;-71
2024/01/21 06:14:07;;;;;;;6.05;3.00;;;1.80;77.10;;;;;;5076015;28;20497;-71
2024/01/21 06:16:33;;;;;;;5.63;3.05;;;1.80;77.10;;;;;;5076018;28;20037;-71
2024/01/21 06:18:58;;;;;;;9.02;3.50;;;1.80;77.60;;;;;;5075965;28;20033;-71
2024/01/21 06:21:24;;;;;;;4.68;3.15;;;1.90;77.20;;;;;;5074712;28;20410;-71
2024/01/21 06:23:50;;;;;;;5.20;3.47;;;1.80;77.50;;;;;;5074359;28;20405;-71
2024/01/21 06:26:20;;;;;;;7.10;3.40;;;1.90;76.90;;;;;;5075750;28;20051;-71
2024/01/21 06:28:50;;;;;;;6.70;3.90;;;1.90;76.90;;;;;;5075801;28;20039;-71
2024/01/21 06:31:16;;;;;;;8.45;4.07;;;1.90;76.70;;;;;;5075362;28;20489;-71
2024/01/21 06:33:42;;;;;;;8.35;4.35;;;1.90;76.60;;;;;;5075711;28;20045;-71
2024/01/21 06:36:08;;;;;;;10.93;4.10;;;1.90;76.60;;;;;;5074023;28;20046;-71
2024/01/21 06:38:34;;;;;;;6.35;3.72;;;2.00;76.30;;;;;;5074357;28;20037;-71
2024/01/21 06:41:00;;;;;;;6.93;4.20;;;1.90;76.80;;;;;;5075578;28;20500;-71
2024/01/21 06:43:26;;;;;;;6.63;4.30;;;1.90;77.20;;;;;;5073874;28;20527;-71
2024/01/21 06:45:51;;;;;;;6.68;3.90;;;1.90;77.60;;;;;;5074221;28;20051;-71
2024/01/21 06:48:17;;;;;;;6.85;4.18;;;1.80;77.50;;;;;;5073940;28;20521;-71
2024/01/21 06:50:48;;;;;;;10.65;4.43;;;1.90;78.00;;;;;;5073771;28;20047;-71
2024/01/21 06:53:14;;;;;;;7.18;3.67;;;1.80;78.40;;;;;;5073806;28;20087;-71
2024/01/21 06:55:40;;;;;;;7.80;4.40;;;1.80;78.70;;;;;;5073949;28;20051;-71
2024/01/21 06:58:05;;;;;;;6.55;4.07;;;1.80;78.80;;;;;;5073719;28;20401;-71
2024/01/21 07:00:31;;;;;;;8.45;4.15;;;1.80;78.50;;;;;;5073691;28;20041;-71
2024/01/21 07:02:56;;;;;;;7.68;4.57;;;1.80;78.50;;;;;;5074869;28;20040;-71
2024/01/21 07:05:22;;;;;;;7.28;4.30;;;1.80;78.50;;;;;;5075003;28;20072;-71
2024/01/21 07:07:48;;;;;;;7.47;3.85;;;1.80;78.60;;;;;;5073556;28;20051;-71
2024/01/21 07:10:13;;;;;;;7.50;4.43;;;1.80;79.20;;;;;;5073238;28;20044;-71
2024/01/21 07:12:39;;;;;;;8.93;4.40;;;1.70;79.50;;;;;;5074940;28;20064;-71
2024/01/21 07:15:05;;;;;;;11.25;4.72;;;1.80;79.00;;;;;;5073346;28;20041;-71
2024/01/21 07:17:30;;;;;;;10.13;4.68;;;1.80;79.00;;;;;;5073368;28;20044;-71
2024/01/21 07:19:56;;;;;;;7.20;4.40;;;1.80;79.50;;;;;;5073333;28;20047;-71
2024/01/21 07:22:22;;;;;;;10.50;4.35;;;1.80;79.60;;;;;;5073255;28;20040;-71
2024/01/21 07:24:48;;;;;;;8.63;4.43;;;1.80;79.40;;;;;;5074629;28;20036;-71
2024/01/21 07:27:13;;;;;;;10.20;4.47;;;1.80;80.10;;;;;;5074667;28;20032;-70
2024/01/21 07:29:40;;;;;;;8.77;5.18;;;1.70;80.10;;;;;;5073289;28;20503;-70
2024/01/21 07:32:06;;;;;;;7.28;4.80;;;1.70;80.50;;;;;;5073066;28;20040;-70
2024/01/21 07:34:32;;;;;;;10.73;4.68;;;1.70;80.90;;;;;;5072912;28;20064;-70
2024/01/21 07:36:57;;;;;;;9.45;4.50;;;1.70;81.00;;;;;;5072922;28;20068;-70
2024/01/21 07:39:23;;;;;;;7.47;4.80;;;1.80;81.00;;;;;;5073135;28;20079;-70
2024/01/21 07:41:48;;;;;;;7.22;4.47;;;1.70;81.60;;;;;;5074391;28;20040;-71
2024/01/21 07:44:14;;;;;;;9.35;4.70;;;1.70;82.10;;;;;;5072996;28;20044;-71
2024/01/21 07:46:40;;;;;;;12.38;5.03;;;1.70;82.20;;;;;;5073947;28;20044;-71
2024/01/21 07:49:05;;;;;;;7.30;4.50;;;1.70;82.60;;;;;;5072710;28;20583;-71
2024/01/21 07:51:31;;;;;;;7.97;4.82;;;1.70;82.90;;;;;;5073858;28;20055;-71
2024/01/21 07:53:56;;;;;;;8.02;4.68;;;1.70;83.50;;;;;;5072657;28;20041;-70
2024/01/21 07:56:22;;;;;;;6.60;4.32;;;1.70;84.60;;;;;;5074020;28;20028;-71
2024/01/21 07:58:47;;;;;;;7.53;4.72;;;1.70;84.80;;;;;;5072527;28;20486;-71
2024/01/21 08:01:13;;;;;;;10.23;5.30;;;1.70;85.60;;;;;;5072455;28;20048;-71
2024/01/21 08:03:39;;;;;;;8.57;4.75;;;1.70;85.00;;;;;;5072382;28;20041;-71
2024/01/21 08:06:07;;;;;;;8.15;4.93;;;1.70;85.80;;;;;;5072331;28;20072;-71
2024/01/21 08:08:33;;;;;;;11.57;4.80;;;1.70;85.80;;;;;;5072278;28;20048;-71
2024/01/21 08:10:59;;;;;;;9.65;4.80;;;1.80;86.80;;;;;;5073755;28;20032;-72
2024/01/21 08:13:24;;;;;;;8.88;4.68;;;1.70;87.90;;;;;;5073768;28;20085;-71
2024/01/21 08:15:50;;;;;;;8.98;4.70;;;1.70;90.90;;;;;;5072497;28;20074;-71
2024/01/21 08:18:19;;;;;;;9.50;5.05;;;1.70;92.20;;;;;;5072211;28;20039;-71
2024/01/21 08:20:46;;;;;;;8.15;4.80;;;1.70;93.00;;;;;;5072144;28;20508;-71
2024/01/21 08:23:11;;;;;;;9.05;4.43;;;1.70;93.80;;;;;;5073057;28;20044;-71
2024/01/21 08:25:37;;;;;;;6.55;4.65;;;1.80;94.20;;;;;;5072373;28;20131;-71
2024/01/21 08:28:03;;;;;;;9.80;4.63;;;1.80;93.50;;;;;;5073571;28;20498;-70
2024/01/21 08:30:28;;;;;;;7.95;4.85;;;1.80;93.70;;;;;;5072210;28;20107;-72
2024/01/21 08:32:54;;;;;;;6.72;4.15;;;1.80;94.10;;;;;;5072057;28;20497;-71
2024/01/21 08:35:20;;;;;;;8.18;5.00;;;1.80;93.80;;;;;;5072156;28;20036;-71
2024/01/21 08:37:47;;;;;;;12.05;5.00;;;1.90;93.60;;;;;;5072330;28;20032;-71
2024/01/21 08:40:13;;;;;;;12.40;4.97;;;1.90;93.70;;;;;;5073421;28;20109;-72
2024/01/21 08:42:39;;;;;;;6.90;4.55;;;1.90;94.60;;;;;;5055441;28;20079;-71
2024/01/21 08:45:05;;;;;;;8.98;5.03;;;1.80;94.70;;;;;;5071860;28;20459;-71
2024/01/21 08:47:31;;;;;;;9.48;4.72;;;1.80;94.80;;;;;;5071858;28;20390;-71
2024/01/21 08:49:56;;;;;;;7.53;4.68;;;1.80;94.80;;;;;;5072930;28;20047;-71
2024/01/21 08:52:22;;;;;;;7.13;4.95;;;1.90;94.90;;;;;;5073305;28;20029;-71
2024/01/21 08:54:48;;;;;;;7.30;4.80;;;1.90;94.60;;;;;;5071732;28;20032;-71
2024/01/21 08:57:13;;;;;;;8.63;4.68;;;1.90;94.70;;;;;;5073288;28;20037;-70
2024/01/21 08:59:39;;;;;;;8.77;4.85;;;2.00;94.30;;;;;;5072028;28;20044;-71
2024/01/21 09:02:05;;;;;;;7.55;4.65;;;2.10;94.50;;;;;;5071735;28;20147;-73
2024/01/21 09:04:30;;;;;;;8.43;5.55;;;2.10;94.80;;;;;;5071605;28;20460;-73
2024/01/21 09:06:56;;;;;;;6.97;4.45;;;2.10;94.20;;;;;;5073171;28;20036;-73
2024/01/21 09:09:21;;;;;;;6.97;4.28;;;2.20;94.60;;;;;;5073159;28;20089;-73
2024/01/21 09:11:47;;;;;;;8.73;4.38;;;2.20;94.90;;;;;;5071569;28;20412;-73
2024/01/21 09:14:13;;;;;;;9.18;4.63;;;2.20;95.20;;;;;;5071544;28;20033;-73
2024/01/21 09:16:39;;;;;;;7.40;4.68;;;2.20;95.20;;;;;;5071826;28;20089;-73
2024/01/21 09:19:05;;;;;;;9.70;5.00;;;2.20;95.90;;;;;;5073096;28;20397;-73
2024/01/21 09:21:33;;;;;;;9.52;5.05;;;2.20;97.00;;;;;;5073026;28;20092;-73
2024/01/21 09:24:03;;;;;;;9.80;5.13;;;2.20;97.60;;;;;;5073043;28;20055;-72
2024/01/21 09:26:29;;;;;;;10.95;5.25;;;2.20;98.20;;;;;;5072612;28;20509;-73
2024/01/21 09:28:55;;;;;;;8.77;4.97;;;2.20;98.90;;;;;;5054823;28;20040;-73
2024/01/21 09:31:20;;;;;;;9.07;5.20;;;2.20;99.20;;;;;;5071714;28;20095;-73
2024/01/21 09:33:46;;;;;;;8.20;5.00;;;2.20;99.20;;;;;;5071388;28;20051;-73
2024/01/21 09:36:11;;;;;;;7.82;4.95;;;2.20;99.40;;;;;;5076001;28;20040;-73
2024/01/21 09:38:37;;;;;;;11.85;5.50;;;2.30;99.30;;;;;;5076747;28;20059;-73
2024/01/21 09:41:23;;;;;;;8.95;5.05;;;2.40;99.40;;;;;;5075408;28;20045;-73
2024/01/21 09:43:49;;;;;;;9.13;5.43;;;2.40;99.70;;;;;;5075034;28;20048;-73
2024/01/21 09:46:14;;;;;;;8.02;4.82;;;2.50;99.60;;;;;;5075028;28;20124;-73
2024/01/21 09:48:40;;;;;;;8.30;5.40;;;2.50;99.70;;;;;;5075005;28;20090;-73
2024/01/21 09:51:06;;;;;;;9.73;5.35;;;2.60;99.60;;;;;;5074905;28;20037;-73
2024/01/21 09:53:32;;;;;;;8.43;5.50;;;2.60;99.50;;;;;;5075151;28;20150;-74
2024/01/21 09:56:06;;;;;;;9.23;4.90;;;2.60;99.80;;;;;;5074825;28;20066;-74
2024/01/21 09:58:38;;;;;;;8.57;4.88;;;2.70;99.90;;;;;;5075220;28;20040;-74
2024/01/21 10:01:05;;;;;;;8.18;4.88;;;2.70;99.90;;;;;;5076396;28;20068;-74
2024/01/21 10:03:31;;;;;;;8.20;5.15;;;2.70;99.90;;;;;;5075011;28;20127;-74
2024/01/21 10:05:57;;;;;;;7.55;4.93;;;2.80;99.90;;;;;;5075736;28;20119;-73
2024/01/21 10:08:23;;;;;;;8.25;5.00;;;2.80;99.90;;;;;;5076185;28;20569;-73
2024/01/21 10:10:48;;;;;;;9.18;4.90;;;2.90;99.90;;;;;;5076078;28;20045;-73
2024/01/21 10:13:14;;;;;;;8.93;5.18;;;2.90;99.90;;;;;;5074590;28;20119;-73
2024/01/21 10:15:40;;;;;;;9.48;5.15;;;3.00;99.90;;;;;;5074481;28;20033;-73
2024/01/21 10:18:05;;;;;;;7.95;4.95;;;3.00;99.90;;;;;;5074478;28;20064;-74
2024/01/21 10:20:33;;;;;;;9.32;5.40;;;3.00;99.90;;;;;;5074434;28;20218;-74
2024/01/21 10:23:09;;;;;;;8.45;5.38;;;3.10;99.90;;;;;;5074414;28;20051;-73
2024/01/21 10:25:35;;;;;;;9.00;5.45;;;3.10;99.90;;;;;;5074587;28;20041;-73
2024/01/21 10:28:00;;;;;;;8.82;5.55;;;3.10;99.90;;;;;;5075860;28;20397;-73
2024/01/21 10:30:26;;;;;;;9.45;5.72;;;3.10;99.90;;;;;;5075681;28;20049;-73
2024/01/21 10:32:51;;;;;;;8.15;5.10;;;3.20;99.90;;;;;;5075760;28;20033;-74
2024/01/21 10:35:17;;;;;;;8.88;5.28;;;3.20;99.90;;;;;;5075639;28;20508;-74
2024/01/21 10:37:43;;;;;;;9.50;5.60;;;3.20;99.90;;;;;;5074137;28;20036;-74
2024/01/21 10:40:09;;;;;;;8.32;5.13;;;3.20;99.90;;;;;;5074105;28;20448;-74
2024/01/21 10:42:35;;;;;;;17.80;6.03;;;3.30;99.90;;;;;;5074047;28;20127;-75
2024/01/21 10:45:02;;;;;;;7.60;5.40;;;3.30;99.90;;;;;;5075036;28;20040;-74
2024/01/21 10:47:31;;;;;;;9.32;5.50;;;3.30;99.90;;;;;;5075446;28;20047;-74
2024/01/21 10:49:57;;;;;;;9.30;5.75;;;3.40;99.90;;;;;;5073817;28;20123;-74
2024/01/21 10:52:23;;;;;;;8.38;5.22;;;3.30;99.90;;;;;;5075435;28;20041;-74
2024/01/21 10:54:49;;;;;;;7.93;5.57;;;3.40;99.90;;;;;;5075326;28;20048;-73
2024/01/21 10:57:15;;;;;;;8.63;5.03;;;3.40;99.90;;;;;;5073997;28;20473;-74
2024/01/21 10:59:42;;;;;;;8.77;5.43;;;3.40;99.90;;;;;;5074037;28;20131;-74
2024/01/21 11:02:10;;;;;;;10.43;5.38;;;3.50;99.90;;;;;;5075188;28;20051;-74
2024/01/21 11:04:36;;;;;;;9.40;5.35;;;3.50;99.90;;;;;;5073823;28;20094;-74
2024/01/21 11:07:04;;;;;;;11.27;5.53;;;3.60;99.90;;;;;;5073586;28;20413;-74
2024/01/21 11:09:32;;;;;;;9.10;5.28;;;3.50;99.90;;;;;;5073543;28;20504;-74
2024/01/21 11:11:58;;;;;;;9.48;5.70;;;3.60;99.90;;;;;;5073437;28;20043;-73
2024/01/21 11:14:32;;;;;;;14.45;5.75;;;3.60;99.90;;;;;;5073442;28;20413;-74
2024/01/21 11:16:59;;;;;;;10.52;5.85;;;3.60;99.90;;;;;;5073646;28;20130;-74
2024/01/21 11:19:25;;;;;;;8.73;5.68;;;3.60;99.90;;;;;;5073561;28;20036;-73
2024/01/21 11:21:55;;;;;;;9.27;5.72;;;3.60;99.90;;;;;;5074848;28;20507;-73
2024/01/21 11:24:28;;;;;;;9.43;5.60;;;3.60;99.90;;;;;;5073439;28;20044;-74
2024/01/21 11:26:55;;;;;;;9.48;5.72;;;3.60;99.90;;;;;;5075003;28;20040;-74
2024/01/21 11:29:32;;;;;;;9.40;5.55;;;3.60;99.90;;;;;;5074055;28;20126;-74
2024/01/21 11:31:58;;;;;;;13.95;6.07;;;3.60;99.90;;;;;;5073534;28;20044;-74
2024/01/21 11:34:24;;;;;;;9.68;5.60;;;3.60;99.90;;;;;;5056269;28;20042;-74
2024/01/21 11:36:51;;;;;;;7.50;5.07;;;3.70;99.90;;;;;;5072995;28;20039;-74
2024/01/21 11:39:20;;;;;;;11.85;5.13;;;3.70;99.90;;;;;;5072905;28;20036;-74
2024/01/21 11:41:46;;;;;;;8.80;6.00;;;3.70;99.90;;;;;;5073196;28;20036;-74
2024/01/21 11:44:23;;;;;;;10.23;5.68;;;3.70;99.90;;;;;;5055914;28;20119;-74
2024/01/21 11:46:49;;;;;;;8.65;5.60;;;3.80;99.90;;;;;;5072816;28;20051;-74
2024/01/21 11:49:16;;;;;;;13.00;6.30;;;3.70;99.90;;;;;;5072826;28;20561;-74
2024/01/21 11:51:44;;;;;;;10.57;6.47;;;3.70;99.90;;;;;;5072930;28;20131;-74
2024/01/21 11:54:11;;;;;;;10.35;6.30;;;3.80;99.90;;;;;;5074238;28;20040;-74
2024/01/21 11:56:36;;;;;;;9.68;6.20;;;3.80;99.90;;;;;;5072609;28;20032;-73
2024/01/21 11:59:06;;;;;;;9.48;6.38;;;3.80;99.90;;;;;;5071961;28;20487;-74
2024/01/21 12:01:33;;;;;;;8.68;5.80;;;3.80;99.90;;;;;;5074015;28;20091;-73
2024/01/21 12:04:00;;;;;;;8.70;6.05;;;3.80;99.90;;;;;;5072474;28;20040;-73
2024/01/21 12:06:26;;;;;;;9.50;6.70;;;3.80;99.90;;;;;;5055732;28;20040;-73
2024/01/21 12:08:52;;;;;;;9.98;6.38;;;3.80;99.90;;;;;;5072703;28;20104;-74
2024/01/21 12:11:18;;;;;;;10.70;6.22;;;3.70;99.90;;;;;;5072267;28;20390;-74
2024/01/21 12:13:44;;;;;;;10.27;6.28;;;3.70;99.90;;;;;;5072644;28;20033;-74
2024/01/21 12:16:10;;;;;;;11.05;6.45;;;3.70;99.90;;;;;;5072807;28;20036;-74
2024/01/21 12:18:43;;;;;;;9.50;6.60;;;3.70;99.90;;;;;;5055582;28;20040;-74
2024/01/21 12:21:15;;;;;;;12.77;6.20;;;3.80;99.90;;;;;;5072202;28;20079;-73
2024/01/21 12:23:46;;;;;;;10.50;6.22;;;3.70;99.90;;;;;;5072219;28;20040;-74
2024/01/21 12:26:16;;;;;;;11.38;6.32;;;3.80;99.90;;;;;;5073563;28;20079;-74
2024/01/21 12:29:00;;;;;;;10.60;6.32;;;3.80;99.90;;;;;;5073764;28;20040;-74
2024/01/21 12:31:46;;;;;;;10.05;6.85;;;3.80;99.90;;;;;;5072241;28;20131;-75
2024/01/21 12:34:12;;;;;;;12.23;7.22;;;3.80;99.90;;;;;;5073857;28;20052;-74
2024/01/21 12:36:41;;;;;;;9.88;5.90;;;3.80;99.90;;;;;;5072468;28;20047;-75
2024/01/21 12:39:11;;;;;;;11.02;6.75;;;3.80;99.90;;;;;;5073970;28;20107;-75
2024/01/21 12:41:37;;;;;;;9.75;6.32;;;3.90;99.90;;;;;;5072382;28;20058;-75
2024/01/21 12:44:03;;;;;;;9.77;6.05;;;3.90;99.90;;;;;;5055126;28;20044;-75
2024/01/21 12:46:30;;;;;;;9.73;6.45;;;3.90;99.90;;;;;;5073397;28;20067;-75
2024/01/21 12:48:55;;;;;;;10.35;6.78;;;3.90;99.90;;;;;;5073382;28;20113;-75